createdAt,value
2018-06-02T00:00:05.529Z,17.80
2018-06-02T00:03:08.823Z,17.90
2018-06-02T00:06:12.040Z,17.90
2018-06-02T00:09:15.177Z,18.00
2018-06-02T00:12:19.580Z,18.00
2018-06-02T00:15:23.559Z,18.00
2018-06-02T00:18:26.785Z,18.00
2018-06-02T00:21:30.767Z,18.00
2018-06-02T00:24:33.971Z,18.00
2018-06-02T00:27:37.245Z,18.00
2018-06-02T00:30:40.452Z,18.00
2018-06-02T00:33:43.686Z,18.00
2018-06-02T00:36:46.870Z,18.00
2018-06-02T00:39:50.879Z,18.00
2018-06-02T00:42:54.874Z,18.00
2018-06-02T00:45:58.086Z,18.00
2018-06-02T00:49:02.051Z,18.00
2018-06-02T00:52:05.294Z,18.00
2018-06-02T00:55:08.515Z,18.00
2018-06-02T00:58:12.482Z,17.90
2018-06-02T01:01:15.676Z,17.90
2018-06-02T01:04:18.883Z,17.90
2018-06-02T01:07:23.191Z,17.90
2018-06-02T01:10:26.405Z,17.90
2018-06-02T01:13:29.694Z,17.80
2018-06-02T01:16:33.677Z,17.90
2018-06-02T01:19:36.901Z,17.90
2018-06-02T01:22:40.907Z,17.90
2018-06-02T01:25:44.116Z,17.80
2018-06-02T01:28:47.336Z,17.80
2018-06-02T01:31:51.312Z,17.70
2018-06-02T01:34:54.507Z,17.70
2018-06-02T01:37:57.893Z,17.70
2018-06-02T01:41:01.077Z,17.70
2018-06-02T01:44:04.288Z,17.80
2018-06-02T01:47:07.491Z,17.80
2018-06-02T01:50:10.716Z,17.80
2018-06-02T01:53:14.651Z,17.80
2018-06-02T01:56:18.204Z,17.80
2018-06-02T01:59:21.397Z,17.70
2018-06-02T02:02:24.593Z,17.80
2018-06-02T02:05:27.936Z,17.70
2018-06-02T02:08:31.170Z,17.70
2018-06-02T02:11:34.382Z,17.70
2018-06-02T02:14:38.364Z,17.70
2018-06-02T02:17:41.587Z,17.70
2018-06-02T02:20:44.790Z,17.70
2018-06-02T02:23:49.053Z,17.70
2018-06-02T02:26:53.016Z,17.70
2018-06-02T02:33:05.704Z,17.70
2018-06-02T02:36:09.223Z,17.70
2018-06-02T02:39:12.406Z,17.70
2018-06-02T02:42:17.089Z,17.70
2018-06-02T02:45:21.031Z,17.70
2018-06-02T02:48:24.947Z,17.60
2018-06-02T02:51:28.176Z,17.70
2018-06-02T02:54:31.340Z,17.60
2018-06-02T02:57:34.537Z,17.60
2018-06-02T03:00:37.805Z,17.60
2018-06-02T03:03:41.995Z,17.60
2018-06-02T03:06:45.181Z,17.60
2018-06-02T03:09:48.373Z,17.60
2018-06-02T03:12:51.537Z,17.60
2018-06-02T03:15:54.730Z,17.60
2018-06-02T03:19:04.462Z,17.60
2018-06-02T03:22:07.656Z,17.70
2018-06-02T03:25:11.071Z,17.60
2018-06-02T03:28:14.807Z,17.70
2018-06-02T03:31:17.989Z,17.70
2018-06-02T03:34:21.464Z,17.60
2018-06-02T03:37:24.730Z,17.70
2018-06-02T03:40:28.692Z,17.60
2018-06-02T03:43:31.921Z,17.50
2018-06-02T03:46:35.910Z,17.70
2018-06-02T03:49:39.161Z,17.60
2018-06-02T03:52:42.427Z,17.60
2018-06-02T03:55:45.644Z,17.60
2018-06-02T03:58:49.624Z,17.60
2018-06-02T04:01:52.800Z,17.60
2018-06-02T04:04:56.019Z,17.50
2018-06-02T04:07:59.234Z,17.50
2018-06-02T04:11:02.437Z,17.40
2018-06-02T04:14:06.404Z,17.40
2018-06-02T04:17:09.617Z,17.40
2018-06-02T04:20:13.617Z,17.40
2018-06-02T04:23:16.912Z,17.40
2018-06-02T04:26:20.134Z,17.30
2018-06-02T04:29:24.132Z,17.20
2018-06-02T04:32:28.144Z,17.10
2018-06-02T04:35:31.382Z,17.10
2018-06-02T04:38:34.679Z,17.10
2018-06-02T04:41:37.925Z,17.10
2018-06-02T04:44:41.827Z,17.10
2018-06-02T04:47:45.040Z,17.10
2018-06-02T04:50:48.277Z,17.10
2018-06-02T04:53:51.487Z,17.00
2018-06-02T04:56:54.723Z,17.10
2018-06-02T04:59:57.912Z,17.10
2018-06-02T05:03:01.160Z,17.20
2018-06-02T05:06:04.384Z,17.10
2018-06-02T05:09:07.564Z,17.10
2018-06-02T05:12:10.742Z,17.10
2018-06-02T05:15:15.134Z,17.10
2018-06-02T05:18:18.363Z,17.10
2018-06-02T05:21:21.537Z,17.10
2018-06-02T05:24:25.500Z,17.10
2018-06-02T05:27:29.187Z,17.10
2018-06-02T05:30:32.406Z,17.10
2018-06-02T05:33:35.613Z,17.20
2018-06-02T05:36:39.608Z,17.10
2018-06-02T05:39:43.116Z,17.10
2018-06-02T05:42:46.331Z,17.20
2018-06-02T05:45:49.548Z,17.20
2018-06-02T05:48:52.768Z,17.20
2018-06-02T05:51:55.986Z,17.30
2018-06-02T05:54:59.233Z,17.30
2018-06-02T05:58:02.486Z,17.30
2018-06-02T06:01:05.672Z,17.30
2018-06-02T06:04:09.107Z,17.30
2018-06-02T06:07:13.090Z,17.30
2018-06-02T06:10:16.315Z,17.30
2018-06-02T06:13:20.298Z,17.30
2018-06-02T06:16:23.499Z,17.20
2018-06-02T06:19:26.696Z,17.30
2018-06-02T06:22:31.329Z,17.40
2018-06-02T06:25:34.537Z,17.40
2018-06-02T06:28:39.054Z,17.40
2018-06-02T06:31:43.026Z,17.40
2018-06-02T06:34:46.664Z,17.40
2018-06-02T06:37:49.870Z,17.40
2018-06-02T06:40:53.676Z,17.40
2018-06-02T06:43:57.683Z,17.10
2018-06-02T06:47:01.664Z,17.10
2018-06-02T06:50:06.962Z,17.10
2018-06-02T06:53:10.965Z,16.90
2018-06-02T06:56:14.251Z,16.90
2018-06-02T06:59:18.261Z,17.10
2018-06-02T07:02:21.472Z,17.10
2018-06-02T07:05:24.680Z,17.10
2018-06-02T07:08:37.157Z,17.10
2018-06-02T07:11:40.868Z,17.10
2018-06-02T07:14:44.373Z,17.20
2018-06-02T07:17:48.376Z,17.30
2018-06-02T07:20:52.349Z,17.50
2018-06-02T07:23:56.270Z,17.50
2018-06-02T07:27:00.125Z,17.50
2018-06-02T07:30:04.119Z,17.60
2018-06-02T07:33:08.158Z,17.60
2018-06-02T07:36:11.410Z,17.60
2018-06-02T07:39:15.457Z,17.70
2018-06-02T07:42:18.722Z,17.80
2018-06-02T07:45:21.992Z,17.80
2018-06-02T07:48:25.334Z,17.70
2018-06-02T07:51:29.420Z,17.80
2018-06-02T07:54:32.679Z,17.80
2018-06-02T07:57:35.939Z,17.90
2018-06-02T08:00:39.141Z,17.90
2018-06-02T08:03:42.760Z,17.80
2018-06-02T08:06:47.987Z,17.80
2018-06-02T08:09:52.018Z,17.80
2018-06-02T08:12:55.239Z,17.80
2018-06-02T08:15:59.175Z,18.00
2018-06-02T08:19:03.075Z,17.90
2018-06-02T08:22:06.376Z,18.00
2018-06-02T08:25:09.741Z,18.00
2018-06-02T08:28:14.303Z,17.90
2018-06-02T08:31:17.538Z,18.00
2018-06-02T08:34:20.903Z,18.00
2018-06-02T08:37:24.149Z,17.90
2018-06-02T08:40:27.447Z,17.90
2018-06-02T08:43:31.454Z,18.10
2018-06-02T08:46:37.895Z,18.10
2018-06-02T08:49:57.740Z,18.10
2018-06-02T09:14:43.653Z,18.40
2018-06-02T09:17:47.625Z,18.50
2018-06-02T09:20:50.886Z,18.50
2018-06-02T09:23:54.977Z,18.40
2018-06-02T09:26:58.925Z,18.30
2018-06-02T09:30:04.097Z,18.30
2018-06-02T09:33:08.174Z,18.30
2018-06-02T09:36:11.446Z,18.30
2018-06-02T09:39:16.497Z,18.50
2018-06-02T09:42:19.705Z,18.50
2018-06-02T09:45:23.380Z,18.70
2018-06-02T09:48:27.399Z,19.90
2018-06-02T09:51:31.368Z,21.00
2018-06-02T09:54:34.769Z,21.00
2018-06-02T09:57:38.199Z,21.30
2018-06-02T10:00:42.278Z,21.40
2018-06-02T10:03:45.509Z,21.40
2018-06-02T10:06:49.478Z,20.90
2018-06-02T10:09:52.690Z,20.90
2018-06-02T10:12:56.191Z,20.70
2018-06-02T10:15:59.420Z,20.70
2018-06-02T10:19:03.497Z,20.60
2018-06-02T10:25:27.514Z,21.50
2018-06-02T10:28:31.572Z,22.40
2018-06-02T10:31:34.773Z,22.30
2018-06-02T10:34:39.328Z,22.80
2018-06-02T10:37:42.620Z,23.50
2018-06-02T10:40:46.500Z,23.90
2018-06-02T10:43:49.719Z,24.30
2018-06-02T10:46:52.894Z,24.00
2018-06-02T10:49:56.402Z,23.90
2018-06-02T10:53:00.450Z,23.60
2018-06-02T10:56:04.537Z,23.50
2018-06-02T10:59:07.755Z,23.50
2018-06-02T11:02:11.001Z,23.50
2018-06-02T11:05:14.239Z,23.30
2018-06-02T11:08:17.554Z,23.10
2018-06-02T11:11:21.558Z,22.70
2018-06-02T11:14:24.751Z,22.60
2018-06-02T11:17:29.963Z,21.80
2018-06-02T11:20:33.997Z,21.60
2018-06-02T11:23:37.284Z,21.50
2018-06-02T11:26:41.308Z,21.60
2018-06-02T11:29:44.562Z,21.70
2018-06-02T11:32:47.736Z,21.70
2018-06-02T11:35:51.994Z,21.90
2018-06-02T11:38:55.894Z,21.90
2018-06-02T11:41:59.849Z,21.80
2018-06-02T11:45:05.160Z,21.80
2018-06-02T11:48:08.388Z,21.80
2018-06-02T11:51:12.405Z,21.90
2018-06-02T11:54:15.576Z,21.90
2018-06-02T11:57:19.366Z,22.20
2018-06-02T12:00:22.593Z,22.60
2018-06-02T12:03:25.794Z,23.10
2018-06-02T12:06:28.989Z,23.10
2018-06-02T12:09:32.228Z,23.10
2018-06-02T12:12:35.451Z,22.80
2018-06-02T12:15:38.806Z,22.60
2018-06-02T12:18:42.033Z,22.50
2018-06-02T12:21:45.314Z,22.50
2018-06-02T12:24:49.525Z,22.20
2018-06-02T12:27:52.769Z,22.10
2018-06-02T12:30:56.009Z,22.00
2018-06-02T12:33:59.200Z,21.60
2018-06-02T12:37:03.406Z,21.40
2018-06-02T12:40:06.619Z,21.20
2018-06-02T12:43:10.604Z,21.60
2018-06-02T12:46:14.648Z,21.60
2018-06-02T12:49:17.854Z,21.60
2018-06-02T12:52:21.277Z,21.50
2018-06-02T12:55:25.388Z,21.60
2018-06-02T12:58:28.700Z,21.80
2018-06-02T13:01:32.335Z,22.10
2018-06-02T13:04:35.693Z,22.60
2018-06-02T13:07:39.240Z,22.90
2018-06-02T13:10:42.488Z,23.10
2018-06-02T13:13:45.723Z,23.10
2018-06-02T13:16:48.892Z,23.30
2018-06-02T13:19:52.121Z,23.50
2018-06-02T13:22:56.119Z,23.90
2018-06-02T13:25:59.292Z,23.90
2018-06-02T13:29:02.795Z,24.00
2018-06-02T13:32:06.026Z,23.90
2018-06-02T13:35:10.003Z,23.90
2018-06-02T13:38:13.220Z,23.90
2018-06-02T13:41:16.402Z,24.00
2018-06-02T13:44:19.622Z,23.80
2018-06-02T13:47:23.578Z,22.70
2018-06-02T13:50:27.211Z,22.70
2018-06-02T13:53:30.510Z,22.70
2018-06-02T13:56:33.719Z,22.10
2018-06-02T13:59:38.396Z,21.70
2018-06-02T14:02:42.941Z,21.70
2018-06-02T14:05:47.009Z,21.90
2018-06-02T14:08:50.271Z,21.80
2018-06-02T14:11:53.435Z,22.10
2018-06-02T14:14:56.629Z,22.30
2018-06-02T14:18:00.325Z,22.40
2018-06-02T14:21:03.533Z,22.60
2018-06-02T14:24:06.801Z,22.80
2018-06-02T14:27:10.101Z,22.70
2018-06-02T14:30:13.380Z,22.60
2018-06-02T14:33:17.392Z,22.30
2018-06-02T14:36:20.612Z,22.30
2018-06-02T14:39:24.564Z,22.90
2018-06-02T14:42:27.771Z,22.90
2018-06-02T14:45:30.959Z,23.00
2018-06-02T14:48:34.152Z,23.00
2018-06-02T14:51:38.517Z,23.00
2018-06-02T14:54:42.533Z,22.90
2018-06-02T14:57:46.439Z,23.00
2018-06-02T15:00:50.310Z,23.00
2018-06-02T15:03:53.633Z,23.30
2018-06-02T15:06:56.851Z,23.30
2018-06-02T15:10:00.090Z,23.40
2018-06-02T15:13:03.280Z,23.50
2018-06-02T15:16:07.126Z,23.60
2018-06-02T15:19:11.123Z,23.90
2018-06-02T15:22:15.129Z,23.90
2018-06-02T15:25:18.928Z,23.90
2018-06-02T15:28:22.115Z,23.90
2018-06-02T15:31:25.463Z,23.80
2018-06-02T15:34:29.459Z,24.00
2018-06-02T15:37:32.773Z,23.90
2018-06-02T15:40:36.744Z,23.80
2018-06-02T15:43:40.044Z,23.80
2018-06-02T15:46:43.223Z,23.60
2018-06-02T15:49:46.454Z,23.40
2018-06-02T15:52:50.592Z,23.50
2018-06-02T15:55:55.083Z,23.60
2018-06-02T15:58:58.280Z,23.60
2018-06-02T16:02:02.890Z,23.50
2018-06-02T16:05:06.055Z,23.50
2018-06-02T16:08:09.548Z,23.70
2018-06-02T16:11:12.754Z,23.60
2018-06-02T16:14:15.990Z,23.60
2018-06-02T16:17:19.220Z,23.50
2018-06-02T16:20:23.156Z,23.20
2018-06-02T16:23:26.370Z,23.10
2018-06-02T16:26:29.590Z,23.00
2018-06-02T16:29:32.823Z,22.80
2018-06-02T16:32:37.009Z,22.70
2018-06-02T16:35:40.691Z,22.50
2018-06-02T16:38:44.699Z,22.80
2018-06-02T16:41:47.889Z,22.80
2018-06-02T16:44:51.599Z,22.80
2018-06-02T16:47:54.751Z,22.80
2018-06-02T16:50:58.224Z,22.70
2018-06-02T16:54:01.589Z,22.50
2018-06-02T16:57:05.225Z,22.40
2018-06-02T17:00:08.529Z,22.30
2018-06-02T17:03:12.606Z,22.30
2018-06-02T17:06:15.855Z,22.30
2018-06-02T17:09:20.682Z,22.10
2018-06-02T17:12:23.935Z,22.00
2018-06-02T17:15:27.479Z,22.00
2018-06-02T17:18:30.893Z,21.80
2018-06-02T17:21:34.091Z,21.70
2018-06-02T17:24:42.143Z,21.60
2018-06-02T17:27:45.430Z,21.60
2018-06-02T17:30:48.764Z,21.60
2018-06-02T17:33:52.805Z,21.50
2018-06-02T17:36:56.060Z,21.50
2018-06-02T17:40:01.848Z,21.40
2018-06-02T17:43:05.051Z,21.40
2018-06-02T17:46:10.091Z,21.30
2018-06-02T17:49:13.345Z,21.30
2018-06-02T17:52:16.653Z,21.20
2018-06-02T17:55:20.116Z,21.10
2018-06-02T17:58:24.150Z,21.00
2018-06-02T18:01:28.147Z,21.00
2018-06-02T18:04:31.468Z,21.00
2018-06-02T18:07:35.565Z,20.90
2018-06-02T18:10:39.580Z,20.80
2018-06-02T18:13:42.870Z,20.80
2018-06-02T18:16:47.614Z,20.80
2018-06-02T18:19:50.899Z,20.80
2018-06-02T18:22:54.900Z,20.70
2018-06-02T18:25:58.134Z,20.70
2018-06-02T18:29:02.091Z,20.60
2018-06-02T18:32:07.816Z,20.60
2018-06-02T18:35:11.064Z,20.50
2018-06-02T18:38:16.054Z,20.50
2018-06-02T18:41:19.281Z,20.40
2018-06-02T18:44:30.647Z,20.40
2018-06-02T18:47:34.122Z,20.40
2018-06-02T18:50:38.313Z,20.40
2018-06-02T18:53:42.544Z,20.50
2018-06-02T18:56:45.757Z,20.50
2018-06-02T18:59:49.214Z,20.50
2018-06-02T19:02:52.473Z,20.40
2018-06-02T19:05:55.765Z,20.40
2018-06-02T19:08:59.032Z,20.40
2018-06-02T19:12:03.089Z,20.20
2018-06-02T19:15:06.381Z,20.20
2018-06-02T19:18:09.647Z,20.10
2018-06-02T19:21:13.650Z,20.00
2018-06-02T19:24:16.867Z,20.00
2018-06-02T19:27:22.175Z,19.80
2018-06-02T19:30:26.227Z,19.70
2018-06-02T19:33:33.108Z,19.70
2018-06-02T19:36:36.372Z,19.70
2018-06-02T19:39:42.220Z,19.60
2018-06-02T19:42:45.474Z,19.50
2018-06-02T19:45:48.721Z,19.50
2018-06-02T19:48:51.975Z,19.50
2018-06-02T19:51:55.271Z,19.50
2018-06-02T19:54:58.586Z,19.50
2018-06-02T19:58:01.887Z,19.50
2018-06-02T20:01:05.927Z,19.50
2018-06-02T20:04:09.166Z,19.50
2018-06-02T20:07:17.957Z,19.40
2018-06-02T20:10:21.248Z,19.40
2018-06-02T20:13:24.429Z,19.50
2018-06-02T20:16:28.027Z,19.50
2018-06-02T20:19:31.289Z,19.40
2018-06-02T20:22:34.634Z,19.40
2018-06-02T20:25:38.632Z,19.10
2018-06-02T20:28:42.008Z,19.10
2018-06-02T20:31:46.199Z,19.10
2018-06-02T20:34:49.438Z,19.10
2018-06-02T20:37:53.453Z,19.10
2018-06-02T20:40:56.724Z,19.00
2018-06-02T20:44:00.380Z,19.00
2018-06-02T20:47:04.441Z,18.80
2018-06-02T20:50:07.846Z,18.80
2018-06-02T20:53:11.185Z,18.70
2018-06-02T20:56:14.453Z,18.80
2018-06-02T20:59:17.676Z,18.70
2018-06-02T21:02:21.643Z,18.50
2018-06-02T21:05:25.551Z,18.50
2018-06-02T21:08:29.587Z,18.10
2018-06-02T21:11:32.781Z,18.10
2018-06-02T21:14:36.057Z,18.00
2018-06-02T21:17:39.326Z,17.80
2018-06-02T21:20:42.798Z,17.80
2018-06-02T21:23:46.945Z,17.70
2018-06-02T21:26:50.412Z,17.70
2018-06-02T21:29:54.187Z,17.60
2018-06-02T21:32:57.358Z,17.50
2018-06-02T21:36:06.409Z,17.30
2018-06-02T21:39:22.402Z,17.30
2018-06-02T21:42:27.226Z,17.20
2018-06-02T21:45:30.682Z,17.30
2018-06-02T21:52:25.357Z,17.20
2018-06-02T21:55:31.717Z,17.20
2018-06-02T21:58:35.959Z,17.10
2018-06-02T22:01:40.108Z,17.10
2018-06-02T22:04:43.440Z,17.10
2018-06-02T22:07:47.144Z,17.10
2018-06-02T22:34:30.639Z,16.90
2018-06-02T22:41:59.572Z,16.80
2018-06-02T22:45:26.198Z,16.70
2018-06-02T22:53:41.057Z,16.40
2018-06-02T22:57:00.166Z,16.60
2018-06-02T23:09:48.659Z,16.20
2018-06-02T23:12:54.936Z,16.40
2018-06-02T23:15:59.169Z,16.20
2018-06-02T23:19:03.943Z,16.10
2018-06-02T23:22:13.752Z,16.30
2018-06-02T23:25:18.052Z,16.20
2018-06-02T23:28:24.158Z,16.10
2018-06-02T23:31:29.141Z,16.00
2018-06-02T23:34:33.424Z,16.00
2018-06-02T23:37:37.740Z,16.00
2018-06-02T23:40:46.595Z,15.90
2018-06-02T23:47:27.333Z,15.60
2018-06-02T23:50:31.601Z,15.60
2018-06-02T23:53:36.329Z,15.70
2018-06-02T23:56:41.465Z,15.80
2018-06-02T23:59:50.149Z,15.80
